This is the latest recevied weather packets stored in our database for station/object GAPWX. If no packets are shown the sender has not sent any weather packets the latest 10 day(s).
| Time | Temp. | Humidity | Pressure | Rain* | Wind** | Luminosity | Snow |
|---|---|---|---|---|---|---|---|
| 1777740852 | 15.56° C | 49% | 1015.7 hPa | 0 mm | - | - | - |
| 1777740550 | 15.56° C | 50% | 1015.7 hPa | 0 mm | - | - | - |
| 1777739946 | 14.44° C | 51% | 1015.8 hPa | 0 mm | - | - | - |
| 1777738442 | 12.78° C | 57% | 1015.9 hPa | 0 mm | - | - | - |
| 1777737840 | 11.67° C | 61% | 1015.9 hPa | 0 mm | - | - | - |
| 1777737234 | 10.56° C | 64% | 1016 hPa | 0 mm | - | - | - |
| 1777733618 | 5.56° C | 71% | 1016.3 hPa | 0 mm | - | - | - |
| 1777733316 | 5° C | 71% | 1016.2 hPa | 0 mm | - | - | - |
| 1777729700 | 3.89° C | 69% | 1015.8 hPa | 0 mm | - | - | - |
| 1777729399 | 3.89° C | 69% | 1015.8 hPa | 0 mm | - | - | - |
| 1777727289 | 3.89° C | 68% | 1015.6 hPa | 0 mm | - | - | - |
| 1777726386 | 3.89° C | 68% | 1015.5 hPa | 0 mm | - | - | - |
| 1777725783 | 4.44° C | 68% | 1015.5 hPa | 0 mm | - | - | - |
| 1777724877 | 4.44° C | 68% | 1015.6 hPa | 0 mm | - | - | - |
| 1777724577 | 4.44° C | 67% | 1015.6 hPa | 0 mm | - | - | - |
| 1777723976 | 4.44° C | 67% | 1015.7 hPa | 0 mm | - | - | - |
| 1777723070 | 4.44° C | 67% | 1015.8 hPa | 0 mm | - | - | - |
| 1777722773 | 5° C | 67% | 1015.8 hPa | 0 mm | - | - | - |
| 1777722466 | 5° C | 67% | 1015.8 hPa | 0 mm | - | - | - |
| 1777722166 | 5° C | 67% | 1015.8 hPa | 0 mm | - | - | - |
| 1777721875 | 5° C | 67% | 1015.8 hPa | 0 mm | - | - | - |
| 1777720961 | 5° C | 67% | 1015.8 hPa | 0 mm | - | - | - |
| 1777720358 | 5° C | 67% | 1015.9 hPa | 0 mm | - | - | - |
| 1777719756 | 5° C | 67% | 1015.8 hPa | 0 mm | - | - | - |
| 1777719454 | 5° C | 66% | 1015.9 hPa | 0 mm | - | - | - |
* Rain since midnight (hover to see other rain measurements)
** Current wind speed in m/s (hover to see current wind gust speed)